sensor_id;sensor_type;location;lat;lon;timestamp;temperature;humidity
7846;DHT22;3968;51.424;6.788;2022-10-31T00:01:34;14.70;99.90
7846;DHT22;3968;51.424;6.788;2022-10-31T00:04:00;14.70;99.90
7846;DHT22;3968;51.424;6.788;2022-10-31T00:06:26;14.70;99.90
7846;DHT22;3968;51.424;6.788;2022-10-31T00:08:54;14.60;99.90
7846;DHT22;3968;51.424;6.788;2022-10-31T00:11:21;14.50;99.90
7846;DHT22;3968;51.424;6.788;2022-10-31T00:13:47;14.50;99.90
7846;DHT22;3968;51.424;6.788;2022-10-31T00:16:17;14.50;99.90
7846;DHT22;3968;51.424;6.788;2022-10-31T00:18:43;14.50;99.90
7846;DHT22;3968;51.424;6.788;2022-10-31T00:21:09;14.50;99.90
7846;DHT22;3968;51.424;6.788;2022-10-31T00:23:35;14.50;99.90
7846;DHT22;3968;51.424;6.788;2022-10-31T00:26:04;14.40;99.90
7846;DHT22;3968;51.424;6.788;2022-10-31T00:28:31;14.40;99.90
7846;DHT22;3968;51.424;6.788;2022-10-31T00:31:05;14.40;99.90
7846;DHT22;3968;51.424;6.788;2022-10-31T00:33:33;14.40;99.90
7846;DHT22;3968;51.424;6.788;2022-10-31T00:35:59;14.40;99.90
7846;DHT22;3968;51.424;6.788;2022-10-31T00:38:24;14.40;99.90
7846;DHT22;3968;51.424;6.788;2022-10-31T00:40:50;14.30;99.90
7846;DHT22;3968;51.424;6.788;2022-10-31T00:43:16;14.30;99.90
7846;DHT22;3968;51.424;6.788;2022-10-31T00:45:42;14.30;99.90
7846;DHT22;3968;51.424;6.788;2022-10-31T00:48:08;14.20;99.90
7846;DHT22;3968;51.424;6.788;2022-10-31T00:50:34;14.20;99.90
7846;DHT22;3968;51.424;6.788;2022-10-31T00:53:00;14.30;99.90
7846;DHT22;3968;51.424;6.788;2022-10-31T00:55:25;14.20;99.90
7846;DHT22;3968;51.424;6.788;2022-10-31T00:57:51;14.20;99.90
7846;DHT22;3968;51.424;6.788;2022-10-31T01:00:17;14.30;99.90
7846;DHT22;3968;51.424;6.788;2022-10-31T01:02:42;14.30;99.90
7846;DHT22;3968;51.424;6.788;2022-10-31T01:05:08;14.30;99.90
7846;DHT22;3968;51.424;6.788;2022-10-31T01:07:38;14.30;99.90
7846;DHT22;3968;51.424;6.788;2022-10-31T01:10:06;14.30;99.90
7846;DHT22;3968;51.424;6.788;2022-10-31T01:12:43;14.20;99.90
7846;DHT22;3968;51.424;6.788;2022-10-31T01:15:11;14.20;99.90
7846;DHT22;3968;51.424;6.788;2022-10-31T01:17:37;14.20;99.90
7846;DHT22;3968;51.424;6.788;2022-10-31T01:20:04;14.20;99.90
7846;DHT22;3968;51.424;6.788;2022-10-31T01:22:31;14.20;99.90
7846;DHT22;3968;51.424;6.788;2022-10-31T01:24:56;14.20;99.90
7846;DHT22;3968;51.424;6.788;2022-10-31T01:27:22;14.20;99.90
7846;DHT22;3968;51.424;6.788;2022-10-31T01:29:48;14.20;99.90
7846;DHT22;3968;51.424;6.788;2022-10-31T01:32:13;14.10;99.90
7846;DHT22;3968;51.424;6.788;2022-10-31T01:34:39;14.10;99.90
7846;DHT22;3968;51.424;6.788;2022-10-31T01:37:04;14.10;99.90
7846;DHT22;3968;51.424;6.788;2022-10-31T01:39:30;14.00;99.90
7846;DHT22;3968;51.424;6.788;2022-10-31T01:41:56;13.90;99.90
7846;DHT22;3968;51.424;6.788;2022-10-31T01:46:54;13.80;99.90
7846;DHT22;3968;51.424;6.788;2022-10-31T01:49:35;13.80;99.90
7846;DHT22;3968;51.424;6.788;2022-10-31T01:52:08;13.70;99.90
7846;DHT22;3968;51.424;6.788;2022-10-31T01:54:39;13.70;99.90
7846;DHT22;3968;51.424;6.788;2022-10-31T01:57:07;13.70;99.90
7846;DHT22;3968;51.424;6.788;2022-10-31T01:59:36;13.70;99.90
7846;DHT22;3968;51.424;6.788;2022-10-31T02:02:05;13.70;99.90
7846;DHT22;3968;51.424;6.788;2022-10-31T02:04:31;13.70;99.90
7846;DHT22;3968;51.424;6.788;2022-10-31T02:07:05;13.80;99.90
7846;DHT22;3968;51.424;6.788;2022-10-31T02:09:31;13.70;99.90
7846;DHT22;3968;51.424;6.788;2022-10-31T02:11:59;13.70;99.90
7846;DHT22;3968;51.424;6.788;2022-10-31T02:14:27;13.60;99.90
7846;DHT22;3968;51.424;6.788;2022-10-31T02:16:53;13.60;99.90
7846;DHT22;3968;51.424;6.788;2022-10-31T02:19:40;13.60;99.90
7846;DHT22;3968;51.424;6.788;2022-10-31T02:28:04;13.60;99.90
7846;DHT22;3968;51.424;6.788;2022-10-31T02:33:41;13.70;99.90
7846;DHT22;3968;51.424;6.788;2022-10-31T02:44:10;13.50;99.90
7846;DHT22;3968;51.424;6.788;2022-10-31T02:46:51;13.40;99.90
7846;DHT22;3968;51.424;6.788;2022-10-31T02:51:55;13.40;99.90
7846;DHT22;3968;51.424;6.788;2022-10-31T02:54:26;13.30;99.90
7846;DHT22;3968;51.424;6.788;2022-10-31T02:56:58;13.30;99.90
7846;DHT22;3968;51.424;6.788;2022-10-31T02:59:24;13.30;99.90
7846;DHT22;3968;51.424;6.788;2022-10-31T03:01:56;13.30;99.90
7846;DHT22;3968;51.424;6.788;2022-10-31T03:04:39;13.20;99.90
7846;DHT22;3968;51.424;6.788;2022-10-31T03:15:56;13.10;99.90
7846;DHT22;3968;51.424;6.788;2022-10-31T03:18:34;13.00;99.90
7846;DHT22;3968;51.424;6.788;2022-10-31T03:23:37;13.00;99.90
7846;DHT22;3968;51.424;6.788;2022-10-31T03:26:06;12.90;99.90
7846;DHT22;3968;51.424;6.788;2022-10-31T03:28:57;12.90;99.90
7846;DHT22;3968;51.424;6.788;2022-10-31T03:31:26;12.90;99.90
7846;DHT22;3968;51.424;6.788;2022-10-31T03:33:54;12.90;99.90
7846;DHT22;3968;51.424;6.788;2022-10-31T03:36:22;12.80;99.90
7846;DHT22;3968;51.424;6.788;2022-10-31T03:38:48;12.80;99.90
7846;DHT22;3968;51.424;6.788;2022-10-31T03:41:21;12.70;99.90
7846;DHT22;3968;51.424;6.788;2022-10-31T03:43:56;12.80;99.90
7846;DHT22;3968;51.424;6.788;2022-10-31T03:46:23;12.70;99.90
7846;DHT22;3968;51.424;6.788;2022-10-31T03:48:50;12.70;99.90
7846;DHT22;3968;51.424;6.788;2022-10-31T03:51:25;12.70;99.90
7846;DHT22;3968;51.424;6.788;2022-10-31T03:53:56;12.70;99.90
7846;DHT22;3968;51.424;6.788;2022-10-31T03:59:18;12.70;99.90
7846;DHT22;3968;51.424;6.788;2022-10-31T04:01:49;12.80;99.90
7846;DHT22;3968;51.424;6.788;2022-10-31T04:04:15;12.80;99.90
7846;DHT22;3968;51.424;6.788;2022-10-31T04:06:43;12.80;99.90
7846;DHT22;3968;51.424;6.788;2022-10-31T04:09:09;12.80;99.90
7846;DHT22;3968;51.424;6.788;2022-10-31T04:11:43;12.90;99.90
7846;DHT22;3968;51.424;6.788;2022-10-31T04:14:11;12.80;99.90
7846;DHT22;3968;51.424;6.788;2022-10-31T04:16:40;12.80;99.90
7846;DHT22;3968;51.424;6.788;2022-10-31T04:19:07;12.80;99.90
7846;DHT22;3968;51.424;6.788;2022-10-31T04:21:32;12.70;99.90
7846;DHT22;3968;51.424;6.788;2022-10-31T04:23:58;12.70;99.90
7846;DHT22;3968;51.424;6.788;2022-10-31T04:26:24;12.70;99.90
7846;DHT22;3968;51.424;6.788;2022-10-31T04:28:49;12.70;99.90
7846;DHT22;3968;51.424;6.788;2022-10-31T04:31:15;12.70;99.90
7846;DHT22;3968;51.424;6.788;2022-10-31T04:33:41;12.70;99.90
7846;DHT22;3968;51.424;6.788;2022-10-31T04:36:07;12.70;99.90
7846;DHT22;3968;51.424;6.788;2022-10-31T04:38:33;12.70;99.90
7846;DHT22;3968;51.424;6.788;2022-10-31T04:40:59;12.70;99.90
7846;DHT22;3968;51.424;6.788;2022-10-31T04:43:24;12.80;99.90
7846;DHT22;3968;51.424;6.788;2022-10-31T04:45:50;12.70;99.90
7846;DHT22;3968;51.424;6.788;2022-10-31T04:48:16;12.80;99.90
7846;DHT22;3968;51.424;6.788;2022-10-31T04:50:41;12.80;99.90
7846;DHT22;3968;51.424;6.788;2022-10-31T04:53:07;12.80;99.90
7846;DHT22;3968;51.424;6.788;2022-10-31T04:55:33;12.80;99.90
7846;DHT22;3968;51.424;6.788;2022-10-31T04:57:58;12.80;99.90
7846;DHT22;3968;51.424;6.788;2022-10-31T05:00:24;12.70;99.90
7846;DHT22;3968;51.424;6.788;2022-10-31T05:02:52;12.70;99.90
7846;DHT22;3968;51.424;6.788;2022-10-31T05:05:20;12.60;99.90
7846;DHT22;3968;51.424;6.788;2022-10-31T05:07:47;12.60;99.90
7846;DHT22;3968;51.424;6.788;2022-10-31T05:10:16;12.60;99.90
7846;DHT22;3968;51.424;6.788;2022-10-31T05:12:50;12.60;99.90
7846;DHT22;3968;51.424;6.788;2022-10-31T05:15:16;12.60;99.90
7846;DHT22;3968;51.424;6.788;2022-10-31T05:17:43;12.50;99.90
7846;DHT22;3968;51.424;6.788;2022-10-31T05:20:11;12.60;99.90
7846;DHT22;3968;51.424;6.788;2022-10-31T05:22:36;12.50;99.90
7846;DHT22;3968;51.424;6.788;2022-10-31T05:25:02;12.50;99.90
7846;DHT22;3968;51.424;6.788;2022-10-31T05:27:28;12.50;99.90
7846;DHT22;3968;51.424;6.788;2022-10-31T05:29:54;12.50;99.90
7846;DHT22;3968;51.424;6.788;2022-10-31T05:32:19;12.50;99.90
7846;DHT22;3968;51.424;6.788;2022-10-31T05:34:45;12.50;99.90
7846;DHT22;3968;51.424;6.788;2022-10-31T05:37:10;12.50;99.90
7846;DHT22;3968;51.424;6.788;2022-10-31T05:39:36;12.50;99.90
7846;DHT22;3968;51.424;6.788;2022-10-31T05:42:02;12.50;99.90
7846;DHT22;3968;51.424;6.788;2022-10-31T05:44:27;12.40;99.90
7846;DHT22;3968;51.424;6.788;2022-10-31T05:46:53;12.40;99.90
7846;DHT22;3968;51.424;6.788;2022-10-31T05:49:19;12.40;99.90
7846;DHT22;3968;51.424;6.788;2022-10-31T05:51:44;12.50;99.90
7846;DHT22;3968;51.424;6.788;2022-10-31T05:54:10;12.50;99.90
7846;DHT22;3968;51.424;6.788;2022-10-31T05:56:35;12.50;99.90
7846;DHT22;3968;51.424;6.788;2022-10-31T05:59:01;12.40;99.90
7846;DHT22;3968;51.424;6.788;2022-10-31T06:01:27;12.40;99.90
7846;DHT22;3968;51.424;6.788;2022-10-31T06:03:52;12.50;99.90
7846;DHT22;3968;51.424;6.788;2022-10-31T06:06:18;12.60;99.90
7846;DHT22;3968;51.424;6.788;2022-10-31T06:08:43;12.60;99.90
7846;DHT22;3968;51.424;6.788;2022-10-31T06:11:09;12.60;99.90
7846;DHT22;3968;51.424;6.788;2022-10-31T06:13:34;12.50;99.90
7846;DHT22;3968;51.424;6.788;2022-10-31T06:16:00;12.40;99.90
7846;DHT22;3968;51.424;6.788;2022-10-31T06:18:26;12.40;99.90
7846;DHT22;3968;51.424;6.788;2022-10-31T06:20:51;12.40;99.90
7846;DHT22;3968;51.424;6.788;2022-10-31T06:23:17;12.40;99.90
7846;DHT22;3968;51.424;6.788;2022-10-31T06:25:42;12.30;99.90
7846;DHT22;3968;51.424;6.788;2022-10-31T06:28:08;12.20;99.90
7846;DHT22;3968;51.424;6.788;2022-10-31T06:30:33;12.30;99.90
7846;DHT22;3968;51.424;6.788;2022-10-31T06:33:03;12.30;99.90
7846;DHT22;3968;51.424;6.788;2022-10-31T06:35:30;12.30;99.90
7846;DHT22;3968;51.424;6.788;2022-10-31T06:37:55;12.40;99.90
7846;DHT22;3968;51.424;6.788;2022-10-31T06:40:21;12.40;99.90
7846;DHT22;3968;51.424;6.788;2022-10-31T06:42:55;12.40;99.90
7846;DHT22;3968;51.424;6.788;2022-10-31T06:45:20;12.40;99.90
7846;DHT22;3968;51.424;6.788;2022-10-31T06:47:51;12.40;99.90
7846;DHT22;3968;51.424;6.788;2022-10-31T06:50:17;12.40;99.90
7846;DHT22;3968;51.424;6.788;2022-10-31T06:52:43;12.40;99.90
7846;DHT22;3968;51.424;6.788;2022-10-31T06:55:09;12.50;99.90
7846;DHT22;3968;51.424;6.788;2022-10-31T06:57:34;12.50;99.90
7846;DHT22;3968;51.424;6.788;2022-10-31T07:00:00;12.50;99.90
7846;DHT22;3968;51.424;6.788;2022-10-31T07:02:25;12.50;99.90
7846;DHT22;3968;51.424;6.788;2022-10-31T07:04:51;12.60;99.90
7846;DHT22;3968;51.424;6.788;2022-10-31T07:07:17;12.50;99.90
7846;DHT22;3968;51.424;6.788;2022-10-31T07:09:42;12.60;99.90
7846;DHT22;3968;51.424;6.788;2022-10-31T07:12:08;12.60;99.90
7846;DHT22;3968;51.424;6.788;2022-10-31T07:14:33;12.70;99.90
7846;DHT22;3968;51.424;6.788;2022-10-31T07:16:59;12.60;99.90
7846;DHT22;3968;51.424;6.788;2022-10-31T07:19:25;12.60;99.90
7846;DHT22;3968;51.424;6.788;2022-10-31T07:21:50;12.70;99.90
7846;DHT22;3968;51.424;6.788;2022-10-31T07:24:16;12.70;99.90
7846;DHT22;3968;51.424;6.788;2022-10-31T07:26:41;12.70;99.90
7846;DHT22;3968;51.424;6.788;2022-10-31T07:29:07;12.70;99.90
7846;DHT22;3968;51.424;6.788;2022-10-31T07:31:33;12.80;99.90
7846;DHT22;3968;51.424;6.788;2022-10-31T07:34:01;12.90;99.90
7846;DHT22;3968;51.424;6.788;2022-10-31T07:36:26;12.90;99.90
7846;DHT22;3968;51.424;6.788;2022-10-31T08:35:49;16.60;99.90
7846;DHT22;3968;51.424;6.788;2022-10-31T08:38:15;16.80;99.90
7846;DHT22;3968;51.424;6.788;2022-10-31T08:40:41;17.10;99.90
7846;DHT22;3968;51.424;6.788;2022-10-31T08:43:18;17.30;99.90
7846;DHT22;3968;51.424;6.788;2022-10-31T08:45:47;17.60;99.90
7846;DHT22;3968;51.424;6.788;2022-10-31T08:48:15;17.90;99.90
7846;DHT22;3968;51.424;6.788;2022-10-31T08:50:42;18.10;99.90
7846;DHT22;3968;51.424;6.788;2022-10-31T08:53:19;18.10;99.90
7846;DHT22;3968;51.424;6.788;2022-10-31T08:55:46;18.00;99.90
7846;DHT22;3968;51.424;6.788;2022-10-31T08:58:14;18.00;99.90
7846;DHT22;3968;51.424;6.788;2022-10-31T09:00:41;18.00;99.90
7846;DHT22;3968;51.424;6.788;2022-10-31T09:03:11;18.10;99.90
7846;DHT22;3968;51.424;6.788;2022-10-31T09:05:38;17.90;99.90
7846;DHT22;3968;51.424;6.788;2022-10-31T09:08:05;17.90;99.90
7846;DHT22;3968;51.424;6.788;2022-10-31T09:10:33;18.30;99.90
7846;DHT22;3968;51.424;6.788;2022-10-31T09:13:09;18.80;99.90
7846;DHT22;3968;51.424;6.788;2022-10-31T09:15:37;18.80;99.90
7846;DHT22;3968;51.424;6.788;2022-10-31T09:18:07;19.00;99.90
7846;DHT22;3968;51.424;6.788;2022-10-31T09:20:35;19.00;99.90
7846;DHT22;3968;51.424;6.788;2022-10-31T09:23:06;18.90;99.90
7846;DHT22;3968;51.424;6.788;2022-10-31T09:25:35;18.60;99.90
7846;DHT22;3968;51.424;6.788;2022-10-31T09:28:03;18.40;99.90
7846;DHT22;3968;51.424;6.788;2022-10-31T09:30:32;18.20;99.90
7846;DHT22;3968;51.424;6.788;2022-10-31T09:33:00;18.00;99.90
7846;DHT22;3968;51.424;6.788;2022-10-31T09:35:26;17.80;99.90
7846;DHT22;3968;51.424;6.788;2022-10-31T09:38:00;17.60;99.90
7846;DHT22;3968;51.424;6.788;2022-10-31T09:46:25;17.40;99.90
7846;DHT22;3968;51.424;6.788;2022-10-31T09:52:13;17.20;99.90
7846;DHT22;3968;51.424;6.788;2022-10-31T09:57:27;17.30;99.90
7846;DHT22;3968;51.424;6.788;2022-10-31T09:59:54;17.70;99.90
7846;DHT22;3968;51.424;6.788;2022-10-31T10:02:34;18.30;99.90
7846;DHT22;3968;51.424;6.788;2022-10-31T10:05:08;19.00;99.90
7846;DHT22;3968;51.424;6.788;2022-10-31T10:15:47;23.10;99.90
7846;DHT22;3968;51.424;6.788;2022-10-31T10:19:18;23.80;99.90
7846;DHT22;3968;51.424;6.788;2022-10-31T10:29:58;22.40;99.90
7846;DHT22;3968;51.424;6.788;2022-10-31T10:32:31;21.70;99.90
7846;DHT22;3968;51.424;6.788;2022-10-31T10:35:27;21.60;99.90
7846;DHT22;3968;51.424;6.788;2022-10-31T10:38:13;21.70;99.90
7846;DHT22;3968;51.424;6.788;2022-10-31T10:40:42;21.40;99.90
7846;DHT22;3968;51.424;6.788;2022-10-31T10:43:24;21.30;99.90
7846;DHT22;3968;51.424;6.788;2022-10-31T10:49:18;20.70;99.90
7846;DHT22;3968;51.424;6.788;2022-10-31T10:59:40;20.70;99.90
7846;DHT22;3968;51.424;6.788;2022-10-31T11:02:20;21.20;99.90
7846;DHT22;3968;51.424;6.788;2022-10-31T11:04:50;21.70;99.90
7846;DHT22;3968;51.424;6.788;2022-10-31T11:07:20;22.00;99.90
7846;DHT22;3968;51.424;6.788;2022-10-31T11:09:45;21.80;99.90
7846;DHT22;3968;51.424;6.788;2022-10-31T11:12:20;21.70;99.90
7846;DHT22;3968;51.424;6.788;2022-10-31T11:14:51;21.40;99.90
7846;DHT22;3968;51.424;6.788;2022-10-31T11:17:28;21.20;99.90
7846;DHT22;3968;51.424;6.788;2022-10-31T11:22:44;20.90;99.90
7846;DHT22;3968;51.424;6.788;2022-10-31T11:27:45;21.70;99.90
7846;DHT22;3968;51.424;6.788;2022-10-31T11:30:13;21.90;99.90
7846;DHT22;3968;51.424;6.788;2022-10-31T11:32:46;22.10;99.90
7846;DHT22;3968;51.424;6.788;2022-10-31T11:35:16;21.80;99.90
7846;DHT22;3968;51.424;6.788;2022-10-31T11:37:46;21.30;99.90
7846;DHT22;3968;51.424;6.788;2022-10-31T11:40:24;21.20;99.90
7846;DHT22;3968;51.424;6.788;2022-10-31T11:42:51;21.10;99.90
7846;DHT22;3968;51.424;6.788;2022-10-31T11:47:51;20.90;99.90
7846;DHT22;3968;51.424;6.788;2022-10-31T11:50:24;20.90;99.90
7846;DHT22;3968;51.424;6.788;2022-10-31T11:52:51;20.90;99.90
7846;DHT22;3968;51.424;6.788;2022-10-31T11:57:56;20.70;99.90
7846;DHT22;3968;51.424;6.788;2022-10-31T12:00:38;20.50;99.90
7846;DHT22;3968;51.424;6.788;2022-10-31T12:06:04;20.50;99.90
7846;DHT22;3968;51.424;6.788;2022-10-31T12:08:31;20.50;99.90
7846;DHT22;3968;51.424;6.788;2022-10-31T12:18:50;21.20;99.90
7846;DHT22;3968;51.424;6.788;2022-10-31T12:24:40;21.60;99.90
7846;DHT22;3968;51.424;6.788;2022-10-31T12:30:21;21.80;99.90
7846;DHT22;3968;51.424;6.788;2022-10-31T12:33:10;21.70;99.90
7846;DHT22;3968;51.424;6.788;2022-10-31T12:44:19;21.90;99.90
7846;DHT22;3968;51.424;6.788;2022-10-31T12:47:25;22.30;99.90
7846;DHT22;3968;51.424;6.788;2022-10-31T12:58:07;23.40;99.90
7846;DHT22;3968;51.424;6.788;2022-10-31T13:00:37;23.60;99.90
7846;DHT22;3968;51.424;6.788;2022-10-31T13:05:47;24.10;99.90
7846;DHT22;3968;51.424;6.788;2022-10-31T13:08:17;24.00;99.90
7846;DHT22;3968;51.424;6.788;2022-10-31T13:11:18;23.70;99.90
7846;DHT22;3968;51.424;6.788;2022-10-31T13:13:59;23.40;99.90
7846;DHT22;3968;51.424;6.788;2022-10-31T13:16:36;23.40;99.90
7846;DHT22;3968;51.424;6.788;2022-10-31T13:19:22;23.30;99.90
7846;DHT22;3968;51.424;6.788;2022-10-31T13:22:24;23.10;99.90
7846;DHT22;3968;51.424;6.788;2022-10-31T13:30:27;22.40;99.90
7846;DHT22;3968;51.424;6.788;2022-10-31T13:33:07;22.10;99.90
7846;DHT22;3968;51.424;6.788;2022-10-31T13:41:10;21.70;99.90
7846;DHT22;3968;51.424;6.788;2022-10-31T13:46:36;21.50;99.90
7846;DHT22;3968;51.424;6.788;2022-10-31T13:49:03;21.50;99.90
7846;DHT22;3968;51.424;6.788;2022-10-31T13:51:31;21.40;99.90
7846;DHT22;3968;51.424;6.788;2022-10-31T13:54:20;21.40;99.90
7846;DHT22;3968;51.424;6.788;2022-10-31T13:56:49;21.40;99.90
7846;DHT22;3968;51.424;6.788;2022-10-31T13:59:21;21.30;99.90
7846;DHT22;3968;51.424;6.788;2022-10-31T14:01:59;21.20;99.90
7846;DHT22;3968;51.424;6.788;2022-10-31T14:07:08;21.10;99.90
7846;DHT22;3968;51.424;6.788;2022-10-31T14:10:07;21.10;99.90
7846;DHT22;3968;51.424;6.788;2022-10-31T14:12:37;21.20;99.90
7846;DHT22;3968;51.424;6.788;2022-10-31T14:15:25;21.20;99.90
7846;DHT22;3968;51.424;6.788;2022-10-31T14:17:55;21.20;99.90
7846;DHT22;3968;51.424;6.788;2022-10-31T14:20:32;21.20;99.90
7846;DHT22;3968;51.424;6.788;2022-10-31T14:22:58;21.20;99.90
7846;DHT22;3968;51.424;6.788;2022-10-31T14:25:33;21.20;99.90
7846;DHT22;3968;51.424;6.788;2022-10-31T14:28:21;21.20;99.90
7846;DHT22;3968;51.424;6.788;2022-10-31T14:30:57;21.30;99.90
7846;DHT22;3968;51.424;6.788;2022-10-31T14:33:26;21.30;99.90
7846;DHT22;3968;51.424;6.788;2022-10-31T14:38:27;21.10;99.90
7846;DHT22;3968;51.424;6.788;2022-10-31T14:49:15;20.70;99.90
7846;DHT22;3968;51.424;6.788;2022-10-31T14:51:46;20.60;99.90
7846;DHT22;3968;51.424;6.788;2022-10-31T14:54:15;20.60;99.90
7846;DHT22;3968;51.424;6.788;2022-10-31T14:56:50;20.60;99.90
7846;DHT22;3968;51.424;6.788;2022-10-31T14:59:22;20.50;99.90
7846;DHT22;3968;51.424;6.788;2022-10-31T15:04:35;20.50;99.90
7846;DHT22;3968;51.424;6.788;2022-10-31T15:07:18;20.50;99.90
7846;DHT22;3968;51.424;6.788;2022-10-31T15:09:59;20.40;99.90
7846;DHT22;3968;51.424;6.788;2022-10-31T15:12:26;20.30;99.90
7846;DHT22;3968;51.424;6.788;2022-10-31T15:14:55;20.30;99.90
7846;DHT22;3968;51.424;6.788;2022-10-31T15:17:22;20.20;99.90
7846;DHT22;3968;51.424;6.788;2022-10-31T15:19:49;20.20;99.90
7846;DHT22;3968;51.424;6.788;2022-10-31T15:22:23;20.20;99.90
7846;DHT22;3968;51.424;6.788;2022-10-31T15:24:49;20.00;99.90
7846;DHT22;3968;51.424;6.788;2022-10-31T15:27:21;19.90;99.90
7846;DHT22;3968;51.424;6.788;2022-10-31T15:29:55;19.80;99.90
7846;DHT22;3968;51.424;6.788;2022-10-31T15:32:24;19.70;99.90
7846;DHT22;3968;51.424;6.788;2022-10-31T15:34:51;19.70;99.90
7846;DHT22;3968;51.424;6.788;2022-10-31T15:37:19;19.60;99.90
7846;DHT22;3968;51.424;6.788;2022-10-31T15:39:46;19.60;99.90
7846;DHT22;3968;51.424;6.788;2022-10-31T15:42:27;19.50;99.90
7846;DHT22;3968;51.424;6.788;2022-10-31T15:45:18;19.40;99.90
7846;DHT22;3968;51.424;6.788;2022-10-31T15:48:15;19.30;99.90
7846;DHT22;3968;51.424;6.788;2022-10-31T15:50:54;19.20;99.90
7846;DHT22;3968;51.424;6.788;2022-10-31T15:53:35;19.10;99.90
7846;DHT22;3968;51.424;6.788;2022-10-31T15:56:05;19.00;99.90
7846;DHT22;3968;51.424;6.788;2022-10-31T15:58:33;19.00;99.90
7846;DHT22;3968;51.424;6.788;2022-10-31T16:01:06;18.90;99.90
7846;DHT22;3968;51.424;6.788;2022-10-31T16:03:43;18.90;99.90
7846;DHT22;3968;51.424;6.788;2022-10-31T16:06:20;18.80;99.90
7846;DHT22;3968;51.424;6.788;2022-10-31T16:08:48;18.80;99.90
7846;DHT22;3968;51.424;6.788;2022-10-31T16:11:32;18.70;99.90
7846;DHT22;3968;51.424;6.788;2022-10-31T16:14:16;18.60;99.90
7846;DHT22;3968;51.424;6.788;2022-10-31T16:16:48;18.60;99.90
7846;DHT22;3968;51.424;6.788;2022-10-31T16:21:46;18.50;99.90
7846;DHT22;3968;51.424;6.788;2022-10-31T16:27:03;18.50;99.90
7846;DHT22;3968;51.424;6.788;2022-10-31T16:29:38;18.50;99.90
7846;DHT22;3968;51.424;6.788;2022-10-31T16:32:04;18.40;99.90
7846;DHT22;3968;51.424;6.788;2022-10-31T16:34:30;18.40;99.90
7846;DHT22;3968;51.424;6.788;2022-10-31T16:36:56;18.30;99.90
7846;DHT22;3968;51.424;6.788;2022-10-31T16:39:21;18.40;99.90
7846;DHT22;3968;51.424;6.788;2022-10-31T16:41:50;18.30;99.90
7846;DHT22;3968;51.424;6.788;2022-10-31T16:44:21;18.30;99.90
7846;DHT22;3968;51.424;6.788;2022-10-31T16:46:47;18.30;99.90
7846;DHT22;3968;51.424;6.788;2022-10-31T16:49:13;18.20;99.90
7846;DHT22;3968;51.424;6.788;2022-10-31T16:51:41;18.20;99.90
7846;DHT22;3968;51.424;6.788;2022-10-31T16:54:07;18.10;99.90
7846;DHT22;3968;51.424;6.788;2022-10-31T16:56:36;18.00;99.90
7846;DHT22;3968;51.424;6.788;2022-10-31T16:59:04;18.00;99.90
7846;DHT22;3968;51.424;6.788;2022-10-31T17:01:31;17.90;99.90
7846;DHT22;3968;51.424;6.788;2022-10-31T17:03:56;17.90;99.90
7846;DHT22;3968;51.424;6.788;2022-10-31T17:06:22;17.90;99.90
7846;DHT22;3968;51.424;6.788;2022-10-31T17:08:48;17.80;99.90
7846;DHT22;3968;51.424;6.788;2022-10-31T17:11:18;17.80;99.90
7846;DHT22;3968;51.424;6.788;2022-10-31T17:13:44;17.80;99.90
7846;DHT22;3968;51.424;6.788;2022-10-31T17:16:12;17.70;99.90
7846;DHT22;3968;51.424;6.788;2022-10-31T17:18:38;17.70;99.90
7846;DHT22;3968;51.424;6.788;2022-10-31T17:21:04;17.70;99.90
7846;DHT22;3968;51.424;6.788;2022-10-31T17:23:35;17.60;99.90
7846;DHT22;3968;51.424;6.788;2022-10-31T17:26:03;17.60;99.90
7846;DHT22;3968;51.424;6.788;2022-10-31T17:28:28;17.50;99.90
7846;DHT22;3968;51.424;6.788;2022-10-31T17:30:55;17.50;99.90
7846;DHT22;3968;51.424;6.788;2022-10-31T17:33:22;17.50;99.90
7846;DHT22;3968;51.424;6.788;2022-10-31T17:35:48;17.50;99.90
7846;DHT22;3968;51.424;6.788;2022-10-31T17:38:14;17.50;99.90
7846;DHT22;3968;51.424;6.788;2022-10-31T17:40:40;17.50;99.90
7846;DHT22;3968;51.424;6.788;2022-10-31T17:43:10;17.50;99.90
7846;DHT22;3968;51.424;6.788;2022-10-31T17:45:39;17.50;99.90
7846;DHT22;3968;51.424;6.788;2022-10-31T17:48:05;17.40;99.90
7846;DHT22;3968;51.424;6.788;2022-10-31T17:50:31;17.40;99.90
7846;DHT22;3968;51.424;6.788;2022-10-31T17:52:57;17.40;99.90
7846;DHT22;3968;51.424;6.788;2022-10-31T17:55:23;17.40;99.90
7846;DHT22;3968;51.424;6.788;2022-10-31T17:57:49;17.40;99.90
7846;DHT22;3968;51.424;6.788;2022-10-31T18:00:17;17.40;99.90
7846;DHT22;3968;51.424;6.788;2022-10-31T18:02:45;17.50;99.90
7846;DHT22;3968;51.424;6.788;2022-10-31T18:05:11;17.50;99.90
7846;DHT22;3968;51.424;6.788;2022-10-31T18:07:36;17.50;99.90
7846;DHT22;3968;51.424;6.788;2022-10-31T18:10:03;17.50;99.90
7846;DHT22;3968;51.424;6.788;2022-10-31T18:12:30;17.60;99.90
7846;DHT22;3968;51.424;6.788;2022-10-31T18:14:59;17.50;99.90
7846;DHT22;3968;51.424;6.788;2022-10-31T18:17:25;17.60;99.90
7846;DHT22;3968;51.424;6.788;2022-10-31T18:19:51;17.60;99.90
7846;DHT22;3968;51.424;6.788;2022-10-31T18:22:16;17.60;99.90
7846;DHT22;3968;51.424;6.788;2022-10-31T18:24:42;17.60;99.90
7846;DHT22;3968;51.424;6.788;2022-10-31T18:27:07;17.70;99.90
7846;DHT22;3968;51.424;6.788;2022-10-31T18:29:33;17.70;99.90
7846;DHT22;3968;51.424;6.788;2022-10-31T18:31:59;17.70;99.90
7846;DHT22;3968;51.424;6.788;2022-10-31T18:34:25;17.80;99.90
7846;DHT22;3968;51.424;6.788;2022-10-31T18:36:50;17.90;99.90
7846;DHT22;3968;51.424;6.788;2022-10-31T18:39:17;17.80;99.90
7846;DHT22;3968;51.424;6.788;2022-10-31T18:41:43;17.70;99.90
7846;DHT22;3968;51.424;6.788;2022-10-31T18:44:08;17.70;99.90
7846;DHT22;3968;51.424;6.788;2022-10-31T18:46:35;17.60;99.90
7846;DHT22;3968;51.424;6.788;2022-10-31T18:49:01;17.70;99.90
7846;DHT22;3968;51.424;6.788;2022-10-31T18:51:28;17.60;99.90
7846;DHT22;3968;51.424;6.788;2022-10-31T18:53:56;17.70;99.90
7846;DHT22;3968;51.424;6.788;2022-10-31T18:56:24;17.70;99.90
7846;DHT22;3968;51.424;6.788;2022-10-31T18:58:51;17.90;99.90
7846;DHT22;3968;51.424;6.788;2022-10-31T19:01:18;17.90;99.90
7846;DHT22;3968;51.424;6.788;2022-10-31T19:03:44;17.80;99.90
7846;DHT22;3968;51.424;6.788;2022-10-31T19:06:10;18.00;99.90
7846;DHT22;3968;51.424;6.788;2022-10-31T19:08:38;17.90;99.90
7846;DHT22;3968;51.424;6.788;2022-10-31T19:11:05;17.90;99.90
7846;DHT22;3968;51.424;6.788;2022-10-31T19:13:32;17.90;99.90
7846;DHT22;3968;51.424;6.788;2022-10-31T19:16:03;17.70;99.90
7846;DHT22;3968;51.424;6.788;2022-10-31T19:18:29;17.70;99.90
7846;DHT22;3968;51.424;6.788;2022-10-31T19:20:55;17.60;99.90
7846;DHT22;3968;51.424;6.788;2022-10-31T19:23:20;17.70;99.90
7846;DHT22;3968;51.424;6.788;2022-10-31T19:25:46;17.60;99.90
7846;DHT22;3968;51.424;6.788;2022-10-31T19:28:11;17.60;99.90
7846;DHT22;3968;51.424;6.788;2022-10-31T19:30:37;17.50;99.90
7846;DHT22;3968;51.424;6.788;2022-10-31T19:33:03;17.60;99.90
7846;DHT22;3968;51.424;6.788;2022-10-31T19:35:28;17.60;99.90
7846;DHT22;3968;51.424;6.788;2022-10-31T19:37:54;17.50;99.90
7846;DHT22;3968;51.424;6.788;2022-10-31T19:40:20;17.40;99.90
7846;DHT22;3968;51.424;6.788;2022-10-31T19:42:46;17.40;99.90
7846;DHT22;3968;51.424;6.788;2022-10-31T19:45:12;17.30;99.90
7846;DHT22;3968;51.424;6.788;2022-10-31T19:47:37;17.30;99.90
7846;DHT22;3968;51.424;6.788;2022-10-31T19:50:03;17.20;99.90
7846;DHT22;3968;51.424;6.788;2022-10-31T19:52:32;17.30;99.90